Time;durP1;ratioP1;P1;durP2;ratioP2;P2;SDS_P1;SDS_P2;PMS_P1;PMS_P2;Temp;Humidity;BMP_temperature;BMP_pressure;BME280_temperature;BME280_humidity;BME280_pressure;Samples;Min_cycle;Max_cycle;Signal;HPM_P1;HPM_P2
2022/04/05 00:00:17;;;;;;;0.00;0.00;;;7.70;99.90;;;;;;5051932;28;20041;-83
2022/04/05 00:02:43;;;;;;;0.00;0.00;;;7.60;99.90;;;;;;5036378;28;20102;-82
2022/04/05 00:05:08;;;;;;;0.00;0.00;;;7.60;99.90;;;;;;5052819;28;20428;-82
2022/04/05 00:07:34;;;;;;;0.00;0.00;;;7.60;99.90;;;;;;5052318;28;20090;-82
2022/04/05 00:10:00;;;;;;;0.00;0.00;;;7.60;99.90;;;;;;5035823;28;20057;-82
2022/04/05 00:12:26;;;;;;;0.00;0.00;;;7.60;99.90;;;;;;5035888;28;20393;-82
2022/04/05 00:14:52;;;;;;;0.00;0.00;;;7.60;99.90;;;;;;5035601;28;20045;-83
2022/04/05 00:17:18;;;;;;;0.00;0.00;;;7.50;99.90;;;;;;5035683;28;20263;-82
2022/04/05 00:19:44;;;;;;;0.00;0.00;;;7.60;99.90;;;;;;5035623;28;20049;-83
2022/04/05 00:22:10;;;;;;;0.00;0.00;;;7.50;99.90;;;;;;5035727;28;20140;-82
2022/04/05 00:24:35;;;;;;;0.00;0.00;;;7.50;99.90;;;;;;5052269;28;20147;-82
2022/04/05 00:27:01;;;;;;;0.00;0.00;;;7.50;99.90;;;;;;5035756;28;20048;-82
2022/04/05 00:29:27;;;;;;;0.00;0.00;;;7.50;99.90;;;;;;5052252;28;20370;-82
2022/04/05 00:31:53;;;;;;;0.00;0.00;;;7.50;99.90;;;;;;5052212;28;20099;-82
2022/04/05 00:34:24;;;;;;;0.00;0.00;;;7.50;99.90;;;;;;5052224;28;20091;-82
2022/04/05 00:36:51;;;;;;;0.00;0.00;;;7.40;99.90;;;;;;5035686;28;20136;-82
2022/04/05 00:39:17;;;;;;;0.00;0.00;;;7.40;99.90;;;;;;5035184;28;20068;-83
2022/04/05 00:41:43;;;;;;;0.00;0.00;;;7.40;99.90;;;;;;5052177;28;20052;-82
2022/04/05 00:44:08;;;;;;;0.00;0.00;;;7.40;99.90;;;;;;5052726;28;20051;-82
2022/04/05 00:46:34;;;;;;;0.00;0.00;;;7.50;99.90;;;;;;5035425;28;20485;-83
2022/04/05 00:49:01;;;;;;;0.00;0.00;;;7.40;99.90;;;;;;5052159;28;20045;-83
2022/04/05 00:51:27;;;;;;;0.00;0.00;;;7.40;99.90;;;;;;5052132;28;20127;-82
2022/04/05 00:53:55;;;;;;;0.00;0.00;;;7.30;99.90;;;;;;5035238;28;20088;-83
2022/04/05 00:56:22;;;;;;;0.00;0.00;;;7.30;99.90;;;;;;5035231;28;20057;-82
2022/04/05 00:58:50;;;;;;;0.20;0.20;;;7.30;99.90;;;;;;5035114;28;20037;-82
2022/04/05 01:01:18;;;;;;;0.00;0.00;;;7.30;99.90;;;;;;5035318;28;20056;-82
2022/04/05 01:03:51;;;;;;;0.00;0.00;;;7.30;99.90;;;;;;5051899;28;20508;-82
2022/04/05 01:06:18;;;;;;;0.00;0.00;;;7.30;99.90;;;;;;5035404;28;20056;-82
2022/04/05 01:08:46;;;;;;;0.00;0.00;;;7.30;99.90;;;;;;5036012;28;20053;-82
2022/04/05 01:11:12;;;;;;;0.00;0.00;;;7.30;99.90;;;;;;5038643;28;20061;-82
2022/04/05 01:13:37;;;;;;;0.00;0.00;;;7.30;99.90;;;;;;5055180;28;20510;-82
2022/04/05 01:16:04;;;;;;;0.00;0.00;;;7.30;99.90;;;;;;5055214;28;20063;-82
2022/04/05 01:18:30;;;;;;;0.00;0.00;;;7.30;99.90;;;;;;5055203;28;20045;-82
2022/04/05 01:20:56;;;;;;;0.00;0.00;;;7.30;99.90;;;;;;5038874;28;20611;-82
2022/04/05 01:23:23;;;;;;;0.00;0.00;;;7.20;99.90;;;;;;5055291;28;20044;-82
2022/04/05 01:25:49;;;;;;;0.00;0.00;;;7.30;99.90;;;;;;5038874;28;20065;-82
2022/04/05 01:28:15;;;;;;;0.00;0.00;;;7.20;99.90;;;;;;5054963;28;20045;-82
2022/04/05 01:30:41;;;;;;;0.00;0.00;;;7.20;99.90;;;;;;5038638;28;20041;-82
2022/04/05 01:33:07;;;;;;;0.00;0.00;;;7.20;99.90;;;;;;5038469;28;20056;-82
2022/04/05 01:35:34;;;;;;;0.00;0.00;;;7.20;99.90;;;;;;5038505;28;20041;-82
2022/04/05 01:38:02;;;;;;;0.20;0.00;;;7.20;99.90;;;;;;5054806;28;20045;-82
2022/04/05 01:40:28;;;;;;;0.00;0.00;;;7.20;99.90;;;;;;5038958;28;20503;-82
2022/04/05 01:42:54;;;;;;;0.00;0.00;;;7.20;99.90;;;;;;5055002;28;20052;-82
2022/04/05 01:45:20;;;;;;;0.00;0.00;;;7.20;99.90;;;;;;5054986;28;20040;-82
2022/04/05 01:47:49;;;;;;;0.00;0.00;;;7.10;99.90;;;;;;5054859;28;20127;-82
2022/04/05 01:50:15;;;;;;;0.00;0.00;;;7.20;99.90;;;;;;5055252;28;20190;-82
2022/04/05 01:52:41;;;;;;;0.00;0.00;;;7.10;99.90;;;;;;5054843;28;20044;-82
2022/04/05 01:55:07;;;;;;;0.00;0.00;;;7.20;99.90;;;;;;5037834;28;20041;-82
2022/04/05 01:57:34;;;;;;;0.00;0.00;;;7.10;99.90;;;;;;5037773;28;20493;-82
2022/04/05 02:00:01;;;;;;;0.00;0.00;;;7.10;99.90;;;;;;5054680;28;20045;-82
2022/04/05 02:02:27;;;;;;;0.00;0.00;;;7.10;99.90;;;;;;5054575;28;20131;-82
2022/04/05 02:04:53;;;;;;;0.00;0.00;;;7.10;99.90;;;;;;5054100;28;20481;-82
2022/04/05 02:07:19;;;;;;;0.00;0.00;;;7.10;99.90;;;;;;5054419;28;20122;-82
2022/04/05 02:09:47;;;;;;;3.00;0.10;;;7.00;99.90;;;;;;5054500;28;20041;-83
2022/04/05 02:12:13;;;;;;;0.00;0.00;;;7.10;99.90;;;;;;5054773;28;20144;-83
2022/04/05 02:14:40;;;;;;;0.00;0.00;;;7.10;99.90;;;;;;5037307;28;20135;-82
2022/04/05 02:17:06;;;;;;;0.00;0.00;;;7.00;99.90;;;;;;5037384;28;20481;-81
2022/04/05 02:19:32;;;;;;;0.00;0.00;;;7.00;99.90;;;;;;5037670;28;20051;-81
2022/04/05 02:21:59;;;;;;;0.00;0.00;;;7.00;99.90;;;;;;5036962;28;20139;-81
2022/04/05 02:24:24;;;;;;;0.00;0.00;;;7.00;99.90;;;;;;5037710;28;20052;-81
2022/04/05 02:26:53;;;;;;;0.00;0.00;;;7.00;99.90;;;;;;5054537;28;20045;-81
2022/04/05 02:29:21;;;;;;;0.13;0.13;;;7.00;99.90;;;;;;5054188;28;20067;-81
2022/04/05 02:31:47;;;;;;;0.00;0.00;;;7.00;99.90;;;;;;5037411;28;20048;-80
2022/04/05 02:34:13;;;;;;;0.00;0.00;;;7.00;99.90;;;;;;5053756;28;20052;-82
2022/04/05 02:36:38;;;;;;;0.00;0.00;;;7.00;99.90;;;;;;5037264;28;20057;-82
2022/04/05 02:39:06;;;;;;;0.00;0.00;;;7.00;99.90;;;;;;5053442;28;20484;-82
2022/04/05 02:41:31;;;;;;;0.00;0.00;;;6.90;99.90;;;;;;5036894;28;20048;-82
2022/04/05 02:43:58;;;;;;;0.00;0.00;;;6.90;99.90;;;;;;5037379;28;20048;-82
2022/04/05 02:46:25;;;;;;;0.00;0.00;;;6.90;99.90;;;;;;5053792;28;20389;-82
2022/04/05 02:48:54;;;;;;;0.00;0.00;;;6.90;99.90;;;;;;5037198;28;20045;-82
2022/04/05 02:51:22;;;;;;;0.00;0.00;;;6.90;99.90;;;;;;5037104;28;20040;-82
2022/04/05 02:53:48;;;;;;;0.00;0.00;;;6.90;99.90;;;;;;5036552;28;20041;-82
2022/04/05 02:56:14;;;;;;;0.00;0.00;;;6.90;99.90;;;;;;5036989;28;20049;-82
2022/04/05 02:58:41;;;;;;;0.00;0.00;;;6.90;99.90;;;;;;5036622;28;20063;-82
2022/04/05 03:01:07;;;;;;;0.00;0.00;;;6.90;99.90;;;;;;5036796;28;20519;-82
2022/04/05 03:03:33;;;;;;;0.00;0.00;;;6.90;99.90;;;;;;5037054;28;20080;-82
2022/04/05 03:05:59;;;;;;;0.00;0.00;;;6.90;99.90;;;;;;5036539;28;20110;-82
2022/04/05 03:08:25;;;;;;;0.10;0.10;;;6.80;99.90;;;;;;5036815;28;20469;-82
2022/04/05 03:10:51;;;;;;;0.00;0.00;;;6.80;99.90;;;;;;5053582;28;20136;-82
2022/04/05 03:13:17;;;;;;;0.00;0.00;;;6.80;99.90;;;;;;5036002;28;20116;-82
2022/04/05 03:15:42;;;;;;;0.00;0.00;;;6.80;99.90;;;;;;5051799;28;20053;-81
2022/04/05 03:18:08;;;;;;;0.00;0.00;;;6.90;99.90;;;;;;5051014;28;20045;-81
2022/04/05 03:20:34;;;;;;;0.00;0.00;;;6.90;99.90;;;;;;5035441;28;20053;-81
2022/04/05 03:23:00;;;;;;;0.00;0.00;;;6.90;99.90;;;;;;5034968;28;20404;-81
2022/04/05 03:25:27;;;;;;;0.00;0.00;;;6.90;99.90;;;;;;5035340;28;20048;-82
2022/04/05 03:27:53;;;;;;;0.00;0.00;;;6.90;99.90;;;;;;5035167;28;20045;-81
2022/04/05 03:30:21;;;;;;;0.00;0.00;;;6.90;99.90;;;;;;5051579;28;20484;-82
2022/04/05 03:32:47;;;;;;;0.00;0.00;;;6.90;99.90;;;;;;5035770;28;20072;-81
2022/04/05 03:35:14;;;;;;;0.00;0.00;;;6.90;99.90;;;;;;5035710;28;20049;-82
2022/04/05 03:37:40;;;;;;;0.00;0.00;;;6.90;99.90;;;;;;5052822;28;20392;-82
2022/04/05 03:40:07;;;;;;;0.00;0.00;;;7.00;99.90;;;;;;5036101;28;20053;-82
2022/04/05 03:42:33;;;;;;;0.00;0.00;;;7.00;99.90;;;;;;5036130;28;20063;-81
2022/04/05 03:45:00;;;;;;;0.00;0.00;;;7.00;99.90;;;;;;5052909;28;20056;-82
2022/04/05 03:47:27;;;;;;;0.00;0.00;;;7.00;99.90;;;;;;5052563;28;20052;-82
2022/04/05 03:49:55;;;;;;;0.00;0.00;;;7.00;99.90;;;;;;5035635;28;20615;-81
2022/04/05 03:52:21;;;;;;;0.00;0.00;;;7.00;99.90;;;;;;5052458;28;20489;-81
2022/04/05 03:54:49;;;;;;;0.00;0.00;;;7.00;99.90;;;;;;5052637;28;20047;-82
2022/04/05 03:57:14;;;;;;;0.00;0.00;;;7.00;99.90;;;;;;5052176;28;20040;-81
2022/04/05 03:59:40;;;;;;;0.00;0.00;;;7.00;99.90;;;;;;5036060;28;20138;-82
2022/04/05 04:02:06;;;;;;;0.00;0.00;;;7.00;99.90;;;;;;5052396;28;20041;-82
2022/04/05 04:04:32;;;;;;;0.00;0.00;;;7.00;99.90;;;;;;5036147;28;20045;-82
2022/04/05 04:06:57;;;;;;;0.00;0.00;;;7.00;99.90;;;;;;5052409;28;20040;-82
2022/04/05 04:09:23;;;;;;;0.00;0.00;;;7.00;99.90;;;;;;5052624;28;20041;-82
2022/04/05 04:11:49;;;;;;;0.00;0.00;;;7.00;99.90;;;;;;5035834;28;20114;-81
2022/04/05 04:14:16;;;;;;;0.00;0.00;;;7.00;99.90;;;;;;5035269;28;20136;-82
2022/04/05 04:16:42;;;;;;;0.00;0.00;;;7.00;99.90;;;;;;5035774;28;20048;-82
2022/04/05 04:19:08;;;;;;;0.00;0.00;;;7.00;99.90;;;;;;5051998;28;20040;-82
2022/04/05 04:21:36;;;;;;;0.10;0.00;;;7.00;99.90;;;;;;5052380;28;20404;-82
2022/04/05 04:24:03;;;;;;;0.00;0.00;;;7.00;99.90;;;;;;5035614;28;20495;-82
2022/04/05 04:26:28;;;;;;;0.00;0.00;;;7.00;99.90;;;;;;5035663;28;20045;-82
2022/04/05 04:28:57;;;;;;;0.00;0.00;;;7.00;99.90;;;;;;5052018;28;20052;-81
2022/04/05 04:31:26;;;;;;;0.00;0.00;;;7.00;99.90;;;;;;5052315;28;20703;-82
2022/04/05 04:33:52;;;;;;;0.00;0.00;;;7.00;99.90;;;;;;5052194;28;20051;-82
2022/04/05 04:36:18;;;;;;;0.00;0.00;;;7.00;99.90;;;;;;5035289;28;20049;-82
2022/04/05 04:38:44;;;;;;;0.00;0.00;;;7.00;99.90;;;;;;5035435;28;20136;-82
2022/04/05 04:41:10;;;;;;;0.00;0.00;;;7.00;99.90;;;;;;5051896;28;20124;-82
2022/04/05 04:43:36;;;;;;;0.00;0.00;;;7.00;99.90;;;;;;5035711;28;20052;-82
2022/04/05 04:46:01;;;;;;;0.10;0.10;;;7.00;99.90;;;;;;5054731;28;20041;-82
2022/04/05 04:48:28;;;;;;;0.00;0.00;;;7.00;99.90;;;;;;5039505;28;20056;-82
2022/04/05 04:50:53;;;;;;;0.00;0.00;;;7.00;99.90;;;;;;5056090;28;20057;-82
2022/04/05 04:53:19;;;;;;;1.75;0.38;;;7.10;99.90;;;;;;5039549;28;20122;-82
2022/04/05 04:55:45;;;;;;;0.00;0.00;;;7.00;99.90;;;;;;5055704;28;20041;-81
2022/04/05 04:58:10;;;;;;;0.00;0.00;;;7.10;99.90;;;;;;5039332;28;20069;-82
2022/04/05 05:00:36;;;;;;;0.00;0.00;;;7.00;99.90;;;;;;5038788;28;20045;-82
2022/04/05 05:03:02;;;;;;;0.00;0.00;;;7.00;99.90;;;;;;5039299;28;20103;-82
2022/04/05 05:05:28;;;;;;;0.00;0.00;;;6.90;99.90;;;;;;5055986;28;20128;-82
2022/04/05 05:07:54;;;;;;;0.00;0.00;;;7.00;99.90;;;;;;5038743;28;20492;-83
2022/04/05 05:10:23;;;;;;;0.00;0.00;;;6.90;99.90;;;;;;5039729;28;20139;-82
2022/04/05 05:12:49;;;;;;;0.00;0.00;;;7.00;99.90;;;;;;5055515;28;20048;-82
2022/04/05 05:15:18;;;;;;;0.00;0.00;;;7.00;99.90;;;;;;5055067;28;20049;-82
2022/04/05 05:17:45;;;;;;;0.00;0.00;;;7.00;99.90;;;;;;5055429;28;20053;-82
2022/04/05 05:20:12;;;;;;;0.00;0.00;;;6.90;99.90;;;;;;5038067;28;20099;-82
2022/04/05 05:22:39;;;;;;;0.75;0.00;;;7.00;99.90;;;;;;5055125;28;20045;-82
2022/04/05 05:25:05;;;;;;;0.00;0.00;;;7.00;99.90;;;;;;5039242;28;20171;-82
2022/04/05 05:27:31;;;;;;;0.00;0.00;;;7.00;99.90;;;;;;5039475;28;20052;-82
2022/04/05 05:29:56;;;;;;;0.00;0.00;;;7.00;99.90;;;;;;5038444;28;20119;-82
2022/04/05 05:32:22;;;;;;;0.03;0.00;;;7.20;99.90;;;;;;5038279;28;20397;-82
2022/04/05 05:34:48;;;;;;;0.00;0.00;;;7.00;99.90;;;;;;5038639;28;20051;-82
2022/04/05 05:37:14;;;;;;;0.00;0.00;;;7.00;99.90;;;;;;5054991;28;20104;-82
2022/04/05 05:39:42;;;;;;;0.00;0.00;;;7.00;99.90;;;;;;5038295;28;20048;-82
2022/04/05 05:42:08;;;;;;;0.35;0.20;;;7.00;99.90;;;;;;5054785;28;20045;-82
2022/04/05 05:44:35;;;;;;;0.00;0.00;;;7.00;99.90;;;;;;5054813;28;20037;-82
2022/04/05 05:47:02;;;;;;;0.00;0.00;;;7.10;99.90;;;;;;5054975;28;20098;-82
2022/04/05 05:49:28;;;;;;;0.47;0.15;;;7.10;99.90;;;;;;5038286;28;20060;-82
2022/04/05 05:51:53;;;;;;;0.00;0.00;;;7.10;99.90;;;;;;5038133;28;20070;-82
2022/04/05 05:54:19;;;;;;;0.00;0.00;;;7.20;99.90;;;;;;5054981;28;20045;-82
2022/04/05 05:56:45;;;;;;;0.22;0.22;;;7.20;99.90;;;;;;5054001;28;20041;-82
2022/04/05 05:59:11;;;;;;;0.00;0.00;;;7.20;99.90;;;;;;5038036;28;20056;-81
2022/04/05 06:01:37;;;;;;;0.10;0.10;;;7.20;99.90;;;;;;5054703;28;20049;-82
2022/04/05 06:04:03;;;;;;;0.00;0.00;;;7.30;99.90;;;;;;5038635;28;20447;-81
2022/04/05 06:06:29;;;;;;;0.00;0.00;;;7.30;99.90;;;;;;5054354;28;20053;-82
2022/04/05 06:08:55;;;;;;;0.00;0.00;;;7.30;99.90;;;;;;5055298;28;20095;-81
2022/04/05 06:11:22;;;;;;;0.00;0.00;;;7.30;99.90;;;;;;5038187;28;20052;-81
2022/04/05 06:13:48;;;;;;;0.00;0.00;;;7.40;99.90;;;;;;5054620;28;20427;-81
2022/04/05 06:16:14;;;;;;;0.00;0.00;;;7.40;99.90;;;;;;5054679;28;20107;-81
2022/04/05 06:18:42;;;;;;;0.00;0.00;;;7.40;99.90;;;;;;5053763;28;20059;-82
2022/04/05 06:21:08;;;;;;;0.00;0.00;;;7.40;99.90;;;;;;5054252;28;20037;-81
2022/04/05 06:23:34;;;;;;;0.00;0.00;;;7.40;99.90;;;;;;5054331;28;20049;-82
2022/04/05 06:26:00;;;;;;;0.00;0.00;;;7.70;99.90;;;;;;5054137;28;20404;-81
2022/04/05 06:28:26;;;;;;;0.00;0.00;;;7.60;99.90;;;;;;5054104;28;20056;-81
2022/04/05 06:30:51;;;;;;;0.00;0.00;;;7.50;99.90;;;;;;5037654;28;20150;-82
2022/04/05 06:33:20;;;;;;;0.10;0.00;;;7.60;99.90;;;;;;5054201;28;20485;-82
2022/04/05 06:35:48;;;;;;;0.00;0.00;;;7.60;99.90;;;;;;5038063;28;20065;-82
2022/04/05 06:38:15;;;;;;;0.10;0.10;;;7.60;99.90;;;;;;5037145;28;20056;-82
2022/04/05 06:40:41;;;;;;;0.00;0.00;;;7.60;99.90;;;;;;5037527;28;20444;-82
2022/04/05 06:43:07;;;;;;;0.10;0.10;;;7.60;99.90;;;;;;5037239;28;20045;-81
2022/04/05 06:45:33;;;;;;;0.15;0.00;;;7.60;99.90;;;;;;5057234;28;20037;-82
2022/04/05 06:48:00;;;;;;;0.00;0.00;;;7.70;99.90;;;;;;5067295;28;20075;-82
2022/04/05 06:50:26;;;;;;;0.00;0.00;;;7.70;99.90;;;;;;5057090;28;20416;-82
2022/04/05 06:52:55;;;;;;;0.00;0.00;;;7.70;99.90;;;;;;5073533;28;20048;-82
2022/04/05 06:55:21;;;;;;;0.00;0.00;;;7.80;99.90;;;;;;5073731;28;20040;-81
2022/04/05 06:57:47;;;;;;;0.00;0.00;;;7.90;99.90;;;;;;5073662;28;20036;-82
2022/04/05 07:00:14;;;;;;;0.00;0.00;;;8.00;99.90;;;;;;5057007;28;20447;-82
2022/04/05 07:02:41;;;;;;;0.00;0.00;;;8.00;99.90;;;;;;5056532;28;20488;-81
2022/04/05 07:05:09;;;;;;;0.20;0.17;;;8.10;99.90;;;;;;5056915;28;20040;-82
2022/04/05 07:07:36;;;;;;;0.00;0.00;;;8.10;99.90;;;;;;5072388;28;20053;-82
2022/04/05 07:10:03;;;;;;;0.00;0.00;;;8.10;99.90;;;;;;5056263;28;20095;-82
2022/04/05 07:12:30;;;;;;;0.00;0.00;;;8.20;99.90;;;;;;5073535;28;20381;-81
2022/04/05 07:14:56;;;;;;;0.00;0.00;;;8.20;99.90;;;;;;5055517;28;20518;-82
2022/04/05 07:17:21;;;;;;;0.00;0.00;;;8.20;99.90;;;;;;5073168;28;20102;-81
2022/04/05 07:19:47;;;;;;;0.00;0.00;;;8.20;99.90;;;;;;5056594;28;20504;-82
2022/04/05 07:22:13;;;;;;;0.20;0.20;;;8.10;99.90;;;;;;5073481;28;20127;-82
2022/04/05 07:24:38;;;;;;;0.00;0.00;;;8.10;99.90;;;;;;5056450;28;20488;-82
2022/04/05 07:27:04;;;;;;;0.00;0.00;;;8.10;99.90;;;;;;5073139;28;20135;-82
2022/04/05 07:29:30;;;;;;;0.00;0.00;;;8.10;99.90;;;;;;5054457;28;20055;-82
2022/04/05 07:31:58;;;;;;;2.72;0.00;;;8.20;99.90;;;;;;5054463;28;20044;-82
2022/04/05 07:34:23;;;;;;;0.10;0.00;;;8.20;99.90;;;;;;5070542;28;20057;-82
2022/04/05 07:36:49;;;;;;;0.00;0.00;;;8.30;99.90;;;;;;5071537;28;20044;-82
2022/04/05 07:39:21;;;;;;;0.00;0.00;;;8.20;99.90;;;;;;5053951;28;20040;-82
2022/04/05 07:41:47;;;;;;;0.00;0.00;;;8.20;99.90;;;;;;5069653;28;20048;-82
2022/04/05 07:44:13;;;;;;;0.00;0.00;;;8.20;99.90;;;;;;5053745;28;20044;-82
2022/04/05 07:46:39;;;;;;;0.00;0.00;;;8.50;99.90;;;;;;5054366;28;20213;-82
2022/04/05 07:49:07;;;;;;;0.00;0.00;;;8.30;99.90;;;;;;5071056;28;20095;-82
2022/04/05 07:51:33;;;;;;;0.00;0.00;;;8.40;99.90;;;;;;5053710;28;20083;-82
2022/04/05 07:53:59;;;;;;;0.25;0.22;;;8.40;99.90;;;;;;5054080;28;20090;-82
2022/04/05 07:56:25;;;;;;;0.00;0.00;;;8.40;99.90;;;;;;5053858;28;20135;-82
2022/04/05 07:58:50;;;;;;;0.00;0.00;;;8.70;99.90;;;;;;5053821;28;20048;-83
2022/04/05 08:01:16;;;;;;;0.03;0.03;;;8.60;99.90;;;;;;5070939;28;20049;-82
2022/04/05 08:03:45;;;;;;;0.00;0.00;;;8.60;99.90;;;;;;5070846;28;20132;-83
2022/04/05 08:06:14;;;;;;;0.25;0.25;;;8.60;99.90;;;;;;5054006;28;20497;-82
2022/04/05 08:08:42;;;;;;;0.00;0.00;;;8.90;99.90;;;;;;5070802;28;20083;-83
2022/04/05 08:11:08;;;;;;;0.00;0.00;;;8.70;99.90;;;;;;5070269;28;20040;-82
2022/04/05 08:13:36;;;;;;;0.00;0.00;;;8.70;99.90;;;;;;5053948;28;20503;-82
2022/04/05 08:16:02;;;;;;;0.00;0.00;;;8.90;99.90;;;;;;5069957;28;20132;-82
2022/04/05 08:18:28;;;;;;;0.00;0.00;;;8.70;99.90;;;;;;5053665;28;20135;-83
2022/04/05 08:20:54;;;;;;;0.00;0.00;;;8.80;99.90;;;;;;5072075;28;20135;-83
2022/04/05 08:23:20;;;;;;;0.00;0.00;;;8.80;99.90;;;;;;5058314;28;20090;-83
2022/04/05 08:25:46;;;;;;;0.00;0.00;;;8.90;99.90;;;;;;5073846;28;20057;-83
2022/04/05 08:28:11;;;;;;;0.00;0.00;;;9.00;99.90;;;;;;5074386;28;20138;-82
2022/04/05 08:30:38;;;;;;;0.00;0.00;;;9.10;99.90;;;;;;5074449;28;20097;-82
2022/04/05 08:33:04;;;;;;;0.00;0.00;;;9.10;99.90;;;;;;5074176;28;20542;-82
2022/04/05 08:35:33;;;;;;;0.00;0.00;;;8.80;99.90;;;;;;5058091;28;20076;-82
2022/04/05 08:37:59;;;;;;;0.00;0.00;;;9.10;99.90;;;;;;5057224;28;20123;-82
2022/04/05 08:40:26;;;;;;;0.00;0.00;;;8.80;99.90;;;;;;5057273;28;20135;-82
2022/04/05 08:42:55;;;;;;;0.00;0.00;;;8.90;99.90;;;;;;5058330;28;20064;-82
2022/04/05 08:45:22;;;;;;;0.00;0.00;;;9.20;99.90;;;;;;5057722;28;20051;-82
2022/04/05 08:47:53;;;;;;;0.00;0.00;;;9.00;99.90;;;;;;5057946;28;20052;-82
2022/04/05 08:50:22;;;;;;;0.00;0.00;;;9.20;99.90;;;;;;5074810;28;20048;-82
2022/04/05 08:52:48;;;;;;;0.00;0.00;;;9.00;99.90;;;;;;5059177;28;20044;-82
2022/04/05 08:55:16;;;;;;;0.00;0.00;;;9.40;99.90;;;;;;5059572;28;20072;-82
2022/04/05 08:57:42;;;;;;;0.00;0.00;;;9.20;99.90;;;;;;5058720;28;20033;-82
2022/04/05 09:00:10;;;;;;;0.00;0.00;;;9.20;99.90;;;;;;5059168;28;20041;-82
2022/04/05 09:02:36;;;;;;;0.00;0.00;;;9.20;99.90;;;;;;5059130;28;20099;-82
2022/04/05 09:05:03;;;;;;;0.00;0.00;;;9.50;99.90;;;;;;5059008;28;20515;-82
2022/04/05 09:07:34;;;;;;;0.00;0.00;;;9.30;99.90;;;;;;5059030;28;20079;-82
2022/04/05 09:10:11;;;;;;;0.00;0.00;;;9.40;99.90;;;;;;5075918;28;20044;-83
2022/04/05 09:12:48;;;;;;;0.00;0.00;;;9.40;99.90;;;;;;5075747;28;20076;-82
2022/04/05 09:15:16;;;;;;;0.00;0.00;;;9.40;99.90;;;;;;5058382;28;20064;-82
2022/04/05 09:17:44;;;;;;;0.00;0.00;;;9.60;99.90;;;;;;5075522;28;20404;-82
2022/04/05 09:20:12;;;;;;;0.00;0.00;;;9.80;99.90;;;;;;5058498;28;20052;-82
2022/04/05 09:22:38;;;;;;;0.00;0.00;;;9.40;99.90;;;;;;5074764;28;20053;-82
2022/04/05 09:25:04;;;;;;;0.00;0.00;;;9.40;99.90;;;;;;5075447;28;20040;-82
2022/04/05 09:27:50;;;;;;;0.00;0.00;;;9.50;99.90;;;;;;5058441;28;20044;-82
2022/04/05 09:30:25;;;;;;;0.00;0.00;;;9.50;99.90;;;;;;5058373;28;20044;-82
2022/04/05 09:32:52;;;;;;;0.00;0.00;;;9.50;99.90;;;;;;5074726;28;20044;-83
2022/04/05 09:35:27;;;;;;;0.00;0.00;;;9.50;99.90;;;;;;5053105;28;20040;-84
2022/04/05 09:38:08;;;;;;;0.00;0.00;;;9.50;99.90;;;;;;5067421;28;20052;-84
2022/04/05 09:40:35;;;;;;;0.00;0.00;;;9.60;99.90;;;;;;5056907;28;20048;-84
2022/04/05 09:43:15;;;;;;;0.22;0.00;;;9.60;99.90;;;;;;5056498;28;20051;-84
2022/04/05 09:45:53;;;;;;;0.00;0.00;;;9.70;99.90;;;;;;5053355;28;20057;-84
2022/04/05 09:48:24;;;;;;;0.28;0.00;;;9.70;99.90;;;;;;5047437;28;20056;-84
2022/04/05 09:51:05;;;;;;;0.00;0.00;;;9.60;99.90;;;;;;5056911;28;20052;-84
2022/04/05 09:53:43;;;;;;;0.00;0.00;;;9.60;99.90;;;;;;5072283;28;20060;-84
2022/04/05 09:56:13;;;;;;;0.00;0.00;;;9.60;99.90;;;;;;5056338;28;20080;-84
2022/04/05 09:58:56;;;;;;;0.00;0.00;;;9.60;99.90;;;;;;5056517;28;20174;-83
2022/04/05 10:01:25;;;;;;;0.00;0.00;;;9.60;99.90;;;;;;5072777;28;20060;-83
2022/04/05 10:04:17;;;;;;;0.00;0.00;;;9.70;99.90;;;;;;5057550;28;20056;-83
2022/04/05 10:06:47;;;;;;;0.10;0.10;;;9.70;99.90;;;;;;5057519;28;20106;-83
2022/04/05 10:09:17;;;;;;;0.00;0.00;;;9.80;99.90;;;;;;5057710;28;20045;-83
2022/04/05 10:11:44;;;;;;;0.00;0.00;;;9.70;99.90;;;;;;5061147;28;20071;-83
2022/04/05 10:14:13;;;;;;;0.00;0.00;;;9.70;99.90;;;;;;5054007;28;20064;-83
2022/04/05 10:16:41;;;;;;;0.00;0.00;;;9.70;99.90;;;;;;5054239;28;20052;-83
2022/04/05 10:19:10;;;;;;;0.00;0.00;;;9.60;99.90;;;;;;5037287;28;20037;-83
2022/04/05 10:21:38;;;;;;;0.00;0.00;;;9.70;99.90;;;;;;5038031;28;20040;-83
2022/04/05 10:24:05;;;;;;;0.00;0.00;;;9.60;99.90;;;;;;5037167;28;20127;-83
2022/04/05 10:26:34;;;;;;;0.00;0.00;;;9.60;99.90;;;;;;5054655;28;20048;-83
2022/04/05 10:29:05;;;;;;;0.20;0.00;;;9.60;99.90;;;;;;5053774;28;20153;-83
2022/04/05 10:31:52;;;;;;;0.00;0.00;;;9.60;99.90;;;;;;5054970;28;20080;-83
2022/04/05 10:34:28;;;;;;;0.00;0.00;;;9.70;99.90;;;;;;5054303;28;20041;-83
2022/04/05 10:37:17;;;;;;;0.00;0.00;;;9.80;99.90;;;;;;5053772;28;20053;-83
2022/04/05 10:39:55;;;;;;;0.00;0.00;;;9.90;99.90;;;;;;5054075;28;20044;-83
2022/04/05 10:42:21;;;;;;;0.80;0.40;;;9.90;99.90;;;;;;5054042;28;20049;-83
2022/04/05 10:45:11;;;;;;;0.00;0.00;;;10.00;99.90;;;;;;5053865;28;20450;-83
2022/04/05 10:48:15;;;;;;;0.00;0.00;;;10.10;99.90;;;;;;5037187;28;20060;-83
2022/04/05 10:51:00;;;;;;;1.85;0.08;;;10.10;99.90;;;;;;5037064;28;20061;-83
2022/04/05 10:53:36;;;;;;;;;;;10.20;99.90;;;;;;5038483;28;20136;-83
2022/04/05 10:56:09;;;;;;;0.00;0.00;;;10.30;99.90;;;;;;5036907;28;19921;-82
2022/04/05 10:59:05;;;;;;;0.00;0.00;;;10.50;99.90;;;;;;5036338;28;20127;-82
2022/04/05 11:01:43;;;;;;;0.00;0.00;;;10.80;99.90;;;;;;5037223;28;20049;-83
2022/04/05 11:04:18;;;;;;;0.20;0.00;;;10.90;99.90;;;;;;5053927;28;20064;-83
2022/04/05 11:07:02;;;;;;;0.47;0.25;;;11.10;99.90;;;;;;5037556;28;20114;-83
2022/04/05 11:09:37;;;;;;;0.10;0.03;;;11.10;99.90;;;;;;5037168;28;20103;-82
2022/04/05 11:12:11;;;;;;;0.00;0.00;;;11.10;99.90;;;;;;5036705;28;20057;-83
2022/04/05 11:15:03;;;;;;;0.00;0.00;;;11.10;99.90;;;;;;5053682;28;20451;-83
2022/04/05 11:17:31;;;;;;;0.00;0.00;;;11.20;99.90;;;;;;5034384;28;20088;-83
2022/04/05 11:19:58;;;;;;;0.00;0.00;;;11.30;99.90;;;;;;5053568;28;20049;-82
2022/04/05 11:22:24;;;;;;;0.40;0.00;;;11.40;99.90;;;;;;5052913;28;20106;-83
2022/04/05 11:25:04;;;;;;;0.00;0.00;;;11.40;99.90;;;;;;5065395;28;20052;-94
2022/04/05 11:27:32;;;;;;;0.45;0.00;;;11.50;99.90;;;;;;5052963;28;20388;-83
2022/04/05 11:30:23;;;;;;;0.00;0.00;;;11.50;99.90;;;;;;5047535;28;20560;-83
2022/04/05 11:33:12;;;;;;;0.75;0.00;;;11.50;99.90;;;;;;5054934;28;20106;-82
2022/04/05 11:35:40;;;;;;;0.00;0.00;;;11.50;99.90;;;;;;5052944;28;20044;-82
2022/04/05 11:38:12;;;;;;;0.00;0.00;;;11.50;99.90;;;;;;5035879;28;20495;-82
2022/04/05 11:40:45;;;;;;;0.00;0.00;;;11.70;99.90;;;;;;5052733;28;20041;-82
2022/04/05 11:43:19;;;;;;;1.13;0.65;;;11.70;99.90;;;;;;5052331;28;20048;-83
2022/04/05 11:45:46;;;;;;;0.00;0.00;;;11.90;99.90;;;;;;5043787;28;20093;-85
2022/04/05 11:48:17;;;;;;;0.00;0.00;;;12.10;99.90;;;;;;5051581;28;20052;-83
2022/04/05 11:50:43;;;;;;;0.00;0.00;;;12.20;99.90;;;;;;5055533;28;20492;-83
2022/04/05 11:53:18;;;;;;;0.05;0.00;;;12.40;99.90;;;;;;5038237;28;20486;-83
2022/04/05 11:56:02;;;;;;;0.00;0.00;;;12.30;99.90;;;;;;5035226;28;20512;-85
2022/04/05 11:58:30;;;;;;;0.00;0.00;;;12.20;99.90;;;;;;5058608;28;20090;-83
2022/04/05 12:00:57;;;;;;;0.00;0.00;;;12.10;99.90;;;;;;5062633;28;20076;-84
2022/04/05 12:03:23;;;;;;;0.00;0.00;;;12.00;99.90;;;;;;5038245;28;20053;-85
2022/04/05 12:05:49;;;;;;;0.30;0.30;;;12.20;99.90;;;;;;5036121;28;20390;-82
2022/04/05 12:08:16;;;;;;;0.00;0.00;;;12.00;99.90;;;;;;5039042;28;20378;-86
2022/04/05 12:10:45;;;;;;;0.00;0.00;;;12.20;99.90;;;;;;5052128;28;20040;-85
2022/04/05 12:13:11;;;;;;;2.03;0.35;;;12.30;99.90;;;;;;5055306;28;20064;-85
2022/04/05 12:15:37;;;;;;;0.00;0.00;;;12.20;99.90;;;;;;5054997;28;20074;-85
2022/04/05 12:18:27;;;;;;;0.00;0.00;;;12.30;99.90;;;;;;5066961;28;20049;-84
2022/04/05 12:20:57;;;;;;;0.00;0.00;;;12.00;99.90;;;;;;5058240;28;20103;-85
2022/04/05 12:23:26;;;;;;;0.20;0.03;;;12.20;99.90;;;;;;5034954;28;20500;-83
2022/04/05 12:26:06;;;;;;;0.00;0.00;;;12.00;99.90;;;;;;5047546;28;20076;-83
2022/04/05 12:28:37;;;;;;;0.00;0.00;;;12.10;99.90;;;;;;5051600;28;20049;-84
2022/04/05 12:31:06;;;;;;;2.85;0.00;;;12.20;99.90;;;;;;5047209;28;20053;-83
2022/04/05 12:33:33;;;;;;;0.00;0.00;;;12.20;99.90;;;;;;5050840;28;20072;-84
2022/04/05 12:35:58;;;;;;;0.00;0.00;;;12.30;99.90;;;;;;5046053;28;20075;-83
2022/04/05 12:38:24;;;;;;;0.00;0.00;;;12.30;99.90;;;;;;5051169;28;20569;-83
2022/04/05 12:40:50;;;;;;;0.52;0.52;;;12.30;99.90;;;;;;5035751;28;20049;-83
2022/04/05 12:43:19;;;;;;;0.00;0.00;;;12.30;99.90;;;;;;5035123;28;20443;-84
2022/04/05 12:45:46;;;;;;;0.00;0.00;;;12.80;99.90;;;;;;5039673;28;20040;-84
2022/04/05 12:48:22;;;;;;;1.00;0.10;;;12.40;99.90;;;;;;5058691;28;20052;-82
2022/04/05 12:50:51;;;;;;;0.00;0.00;;;12.50;99.90;;;;;;5035717;28;20053;-83
2022/04/05 12:53:26;;;;;;;0.00;0.00;;;12.20;99.90;;;;;;5071533;28;20087;-82
2022/04/05 12:56:14;;;;;;;0.35;0.10;;;12.00;99.90;;;;;;5071600;28;20045;-82
2022/04/05 12:58:50;;;;;;;4.80;0.88;;;11.90;99.90;;;;;;5071509;28;20044;-82
2022/04/05 13:01:17;;;;;;;0.00;0.00;;;11.90;99.90;;;;;;5071640;28;20514;-82